Fort Belvoir, Virginia
Current Conditions -  °F | °C
As of 3:58 PM on Saturday 25 Oct 2014 (Local Time) from KDAA Reporting Station
Clear Clear  
Wind Chill: 73°   Ceiling: Unl
Heat Index: 73°   Visibility: 10mi
Dew Point: 38°   Wind: 5mph
Humidity: 28%   Direction: NA
Pressure: 29.81"   Gusts: NA
Location:  38.69°N, 77.14°W
Report Text: KDAA 251958Z AUTO VRB04KT 10SM CLR 23/03 A2981 RMK AO2 SLP098 T02250033
Loading
Personal Weather Stations






























Interactive Weather Map
Tropical Storm Tracking
New forecast layout! Learn more

10-Day Weather Forecast

Advertisements
Track Severe Weather on mobile